Beaverville, Illinois
Current Conditions -  °F | °C
As of 2:35 PM on Thursday 27 Nov 2014 (Local Time) from KRZL Reporting Station
Overcast Overcast  
Wind Chill: 17°   Ceiling: 2500
Heat Index: 28°   Visibility: 10mi
Dew Point: 23°   Wind: 14mph
Humidity: 80%   Direction: 290°WNW
Pressure: 30.35"   Gusts: 20mph
Location:  40.95°N, 87.65°W
Report Text: KRZL 272035Z AUTO 29012G17KT 10SM OVC025 M02/M05 A3035 RMK AO2
Loading
Personal Weather Stations






























Interactive Weather Map New forecast layout! Learn more

10-Day Weather Forecast

Advertisements
Track Severe Weather on mobile